sensor_id;sensor_type;location;lat;lon;timestamp;P1;durP1;ratioP1;P2;durP2;ratioP2
72501;SDS011;60524;49.874;8.652;2023-08-17T00:04:39;8.00;;;0.80;;
72501;SDS011;60524;49.874;8.652;2023-08-17T00:07:04;4.53;;;0.82;;
72501;SDS011;60524;49.874;8.652;2023-08-17T00:09:30;5.15;;;1.10;;
72501;SDS011;60524;49.874;8.652;2023-08-17T00:11:55;4.93;;;0.73;;
72501;SDS011;60524;49.874;8.652;2023-08-17T00:14:21;1.77;;;0.80;;
72501;SDS011;60524;49.874;8.652;2023-08-17T00:16:46;2.20;;;0.93;;
72501;SDS011;60524;49.874;8.652;2023-08-17T00:19:11;3.50;;;0.77;;
72501;SDS011;60524;49.874;8.652;2023-08-17T00:21:37;2.53;;;1.10;;
72501;SDS011;60524;49.874;8.652;2023-08-17T00:24:02;2.70;;;0.85;;
72501;SDS011;60524;49.874;8.652;2023-08-17T00:26:28;1.88;;;0.95;;
72501;SDS011;60524;49.874;8.652;2023-08-17T00:28:53;2.97;;;1.03;;
72501;SDS011;60524;49.874;8.652;2023-08-17T00:31:19;1.40;;;0.80;;
72501;SDS011;60524;49.874;8.652;2023-08-17T00:33:44;2.93;;;0.90;;
72501;SDS011;60524;49.874;8.652;2023-08-17T00:36:09;3.90;;;0.77;;
72501;SDS011;60524;49.874;8.652;2023-08-17T00:38:34;2.90;;;1.10;;
72501;SDS011;60524;49.874;8.652;2023-08-17T00:41:00;1.00;;;0.60;;
72501;SDS011;60524;49.874;8.652;2023-08-17T00:43:25;2.57;;;0.77;;
72501;SDS011;60524;49.874;8.652;2023-08-17T00:45:50;5.40;;;0.60;;
72501;SDS011;60524;49.874;8.652;2023-08-17T00:48:16;3.60;;;0.95;;
72501;SDS011;60524;49.874;8.652;2023-08-17T00:50:41;2.73;;;0.80;;
72501;SDS011;60524;49.874;8.652;2023-08-17T00:53:07;4.05;;;0.88;;
72501;SDS011;60524;49.874;8.652;2023-08-17T00:55:38;2.60;;;0.93;;
72501;SDS011;60524;49.874;8.652;2023-08-17T00:58:03;3.10;;;1.00;;
72501;SDS011;60524;49.874;8.652;2023-08-17T01:00:28;1.47;;;0.73;;
72501;SDS011;60524;49.874;8.652;2023-08-17T01:02:53;3.00;;;1.10;;
72501;SDS011;60524;49.874;8.652;2023-08-17T01:05:19;1.85;;;0.88;;
72501;SDS011;60524;49.874;8.652;2023-08-17T01:07:45;3.17;;;0.80;;
72501;SDS011;60524;49.874;8.652;2023-08-17T01:10:10;5.20;;;1.10;;
72501;SDS011;60524;49.874;8.652;2023-08-17T01:12:36;1.75;;;0.60;;
72501;SDS011;60524;49.874;8.652;2023-08-17T01:20:14;4.88;;;0.98;;
72501;SDS011;60524;49.874;8.652;2023-08-17T01:22:41;3.35;;;1.10;;
72501;SDS011;60524;49.874;8.652;2023-08-17T01:25:08;3.53;;;0.85;;
72501;SDS011;60524;49.874;8.652;2023-08-17T01:27:54;2.33;;;0.90;;
72501;SDS011;60524;49.874;8.652;2023-08-17T01:30:19;2.35;;;0.63;;
72501;SDS011;60524;49.874;8.652;2023-08-17T01:32:53;5.55;;;1.00;;
72501;SDS011;60524;49.874;8.652;2023-08-17T01:38:02;1.50;;;0.75;;
72501;SDS011;60524;49.874;8.652;2023-08-17T01:40:31;4.75;;;0.80;;
72501;SDS011;60524;49.874;8.652;2023-08-17T01:42:58;1.75;;;0.93;;
72501;SDS011;60524;49.874;8.652;2023-08-17T01:45:24;2.25;;;1.08;;
72501;SDS011;60524;49.874;8.652;2023-08-17T01:47:49;2.35;;;1.00;;
72501;SDS011;60524;49.874;8.652;2023-08-17T01:50:15;5.33;;;1.00;;
72501;SDS011;60524;49.874;8.652;2023-08-17T01:52:40;2.47;;;1.27;;
72501;SDS011;60524;49.874;8.652;2023-08-17T01:55:05;2.07;;;1.00;;
72501;SDS011;60524;49.874;8.652;2023-08-17T01:57:31;1.38;;;0.75;;
72501;SDS011;60524;49.874;8.652;2023-08-17T01:59:56;4.50;;;1.60;;
72501;SDS011;60524;49.874;8.652;2023-08-17T02:02:22;6.90;;;1.00;;
72501;SDS011;60524;49.874;8.652;2023-08-17T02:04:47;5.07;;;1.00;;
72501;SDS011;60524;49.874;8.652;2023-08-17T02:07:12;4.97;;;1.37;;
72501;SDS011;60524;49.874;8.652;2023-08-17T02:09:38;3.47;;;1.00;;
72501;SDS011;60524;49.874;8.652;2023-08-17T02:12:03;2.33;;;0.90;;
72501;SDS011;60524;49.874;8.652;2023-08-17T02:14:29;2.20;;;1.27;;
72501;SDS011;60524;49.874;8.652;2023-08-17T02:16:54;2.10;;;1.00;;
72501;SDS011;60524;49.874;8.652;2023-08-17T02:19:19;1.83;;;1.13;;
72501;SDS011;60524;49.874;8.652;2023-08-17T02:21:44;2.83;;;1.20;;
72501;SDS011;60524;49.874;8.652;2023-08-17T02:24:10;2.92;;;1.10;;
72501;SDS011;60524;49.874;8.652;2023-08-17T02:26:35;3.00;;;1.20;;
72501;SDS011;60524;49.874;8.652;2023-08-17T02:29:01;3.00;;;1.30;;
72501;SDS011;60524;49.874;8.652;2023-08-17T02:31:26;5.70;;;1.60;;
72501;SDS011;60524;49.874;8.652;2023-08-17T02:33:51;2.77;;;1.40;;
72501;SDS011;60524;49.874;8.652;2023-08-17T02:36:16;4.80;;;1.30;;
72501;SDS011;60524;49.874;8.652;2023-08-17T02:38:42;3.53;;;1.60;;
72501;SDS011;60524;49.874;8.652;2023-08-17T02:41:07;3.33;;;1.70;;
72501;SDS011;60524;49.874;8.652;2023-08-17T02:43:32;4.50;;;2.03;;
72501;SDS011;60524;49.874;8.652;2023-08-17T02:45:58;3.27;;;1.90;;
72501;SDS011;60524;49.874;8.652;2023-08-17T02:48:24;3.60;;;2.00;;
72501;SDS011;60524;49.874;8.652;2023-08-17T02:50:49;4.47;;;2.10;;
72501;SDS011;60524;49.874;8.652;2023-08-17T02:53:15;9.47;;;2.50;;
72501;SDS011;60524;49.874;8.652;2023-08-17T02:55:40;10.33;;;2.13;;
72501;SDS011;60524;49.874;8.652;2023-08-17T02:58:05;4.47;;;2.25;;
72501;SDS011;60524;49.874;8.652;2023-08-17T03:00:31;4.40;;;2.27;;
72501;SDS011;60524;49.874;8.652;2023-08-17T03:02:56;17.07;;;2.60;;
72501;SDS011;60524;49.874;8.652;2023-08-17T03:05:21;8.27;;;3.10;;
72501;SDS011;60524;49.874;8.652;2023-08-17T03:07:46;17.37;;;3.10;;
72501;SDS011;60524;49.874;8.652;2023-08-17T03:10:12;5.53;;;3.10;;
72501;SDS011;60524;49.874;8.652;2023-08-17T03:12:37;7.55;;;3.13;;
72501;SDS011;60524;49.874;8.652;2023-08-17T03:15:04;6.78;;;3.33;;
72501;SDS011;60524;49.874;8.652;2023-08-17T03:19:55;10.87;;;3.63;;
72501;SDS011;60524;49.874;8.652;2023-08-17T03:22:24;10.40;;;2.95;;
72501;SDS011;60524;49.874;8.652;2023-08-17T03:24:49;11.77;;;3.10;;
72501;SDS011;60524;49.874;8.652;2023-08-17T03:27:14;8.20;;;3.43;;
72501;SDS011;60524;49.874;8.652;2023-08-17T03:29:40;13.90;;;3.50;;
72501;SDS011;60524;49.874;8.652;2023-08-17T03:32:05;10.93;;;3.50;;
72501;SDS011;60524;49.874;8.652;2023-08-17T03:34:30;17.30;;;4.22;;
72501;SDS011;60524;49.874;8.652;2023-08-17T03:36:56;11.17;;;3.73;;
72501;SDS011;60524;49.874;8.652;2023-08-17T03:39:21;9.47;;;3.50;;
72501;SDS011;60524;49.874;8.652;2023-08-17T03:41:46;13.77;;;2.97;;
72501;SDS011;60524;49.874;8.652;2023-08-17T03:44:12;12.87;;;3.90;;
72501;SDS011;60524;49.874;8.652;2023-08-17T03:46:38;12.05;;;4.10;;
72501;SDS011;60524;49.874;8.652;2023-08-17T03:49:04;6.17;;;3.27;;
72501;SDS011;60524;49.874;8.652;2023-08-17T03:51:29;10.90;;;2.90;;
72501;SDS011;60524;49.874;8.652;2023-08-17T03:53:54;5.97;;;2.73;;
72501;SDS011;60524;49.874;8.652;2023-08-17T03:56:20;6.43;;;2.97;;
72501;SDS011;60524;49.874;8.652;2023-08-17T03:58:45;11.87;;;3.13;;
72501;SDS011;60524;49.874;8.652;2023-08-17T04:01:10;7.77;;;3.23;;
72501;SDS011;60524;49.874;8.652;2023-08-17T04:03:36;5.93;;;2.72;;
72501;SDS011;60524;49.874;8.652;2023-08-17T04:06:05;4.85;;;2.75;;
72501;SDS011;60524;49.874;8.652;2023-08-17T04:11:01;5.75;;;2.75;;
72501;SDS011;60524;49.874;8.652;2023-08-17T04:13:26;7.03;;;3.03;;
72501;SDS011;60524;49.874;8.652;2023-08-17T04:15:52;10.40;;;3.00;;
72501;SDS011;60524;49.874;8.652;2023-08-17T04:18:17;6.32;;;2.78;;
72501;SDS011;60524;49.874;8.652;2023-08-17T04:20:43;6.70;;;2.73;;
72501;SDS011;60524;49.874;8.652;2023-08-17T04:23:08;7.60;;;2.90;;
72501;SDS011;60524;49.874;8.652;2023-08-17T04:25:33;9.13;;;2.80;;
72501;SDS011;60524;49.874;8.652;2023-08-17T04:27:58;7.33;;;2.90;;
72501;SDS011;60524;49.874;8.652;2023-08-17T04:30:24;10.50;;;2.70;;
72501;SDS011;60524;49.874;8.652;2023-08-17T04:32:49;4.67;;;2.30;;
72501;SDS011;60524;49.874;8.652;2023-08-17T04:35:17;3.50;;;2.00;;
72501;SDS011;60524;49.874;8.652;2023-08-17T04:37:43;5.32;;;2.40;;
72501;SDS011;60524;49.874;8.652;2023-08-17T04:40:08;3.83;;;1.87;;
72501;SDS011;60524;49.874;8.652;2023-08-17T04:42:35;5.40;;;2.17;;
72501;SDS011;60524;49.874;8.652;2023-08-17T04:45:00;4.17;;;2.20;;
72501;SDS011;60524;49.874;8.652;2023-08-17T04:47:25;4.47;;;2.20;;
72501;SDS011;60524;49.874;8.652;2023-08-17T04:49:50;5.50;;;2.17;;
72501;SDS011;60524;49.874;8.652;2023-08-17T04:52:16;5.37;;;2.63;;
72501;SDS011;60524;49.874;8.652;2023-08-17T04:54:41;5.00;;;1.95;;
72501;SDS011;60524;49.874;8.652;2023-08-17T04:57:07;4.80;;;2.13;;
72501;SDS011;60524;49.874;8.652;2023-08-17T04:59:32;5.30;;;2.37;;
72501;SDS011;60524;49.874;8.652;2023-08-17T05:01:57;4.83;;;2.10;;
72501;SDS011;60524;49.874;8.652;2023-08-17T05:04:23;5.47;;;2.57;;
72501;SDS011;60524;49.874;8.652;2023-08-17T05:06:48;4.57;;;2.30;;
72501;SDS011;60524;49.874;8.652;2023-08-17T05:09:13;7.10;;;2.50;;
72501;SDS011;60524;49.874;8.652;2023-08-17T05:11:38;5.83;;;2.33;;
72501;SDS011;60524;49.874;8.652;2023-08-17T05:14:04;6.10;;;2.67;;
72501;SDS011;60524;49.874;8.652;2023-08-17T05:16:29;5.00;;;2.43;;
72501;SDS011;60524;49.874;8.652;2023-08-17T05:18:54;5.40;;;2.33;;
72501;SDS011;60524;49.874;8.652;2023-08-17T05:21:21;8.48;;;2.15;;
72501;SDS011;60524;49.874;8.652;2023-08-17T05:23:46;4.00;;;2.13;;
72501;SDS011;60524;49.874;8.652;2023-08-17T05:26:11;4.70;;;2.60;;
72501;SDS011;60524;49.874;8.652;2023-08-17T05:28:37;6.00;;;2.37;;
72501;SDS011;60524;49.874;8.652;2023-08-17T05:31:03;5.50;;;2.50;;
72501;SDS011;60524;49.874;8.652;2023-08-17T05:33:29;4.55;;;2.03;;
72501;SDS011;60524;49.874;8.652;2023-08-17T05:35:55;5.00;;;2.03;;
72501;SDS011;60524;49.874;8.652;2023-08-17T05:38:20;7.32;;;3.03;;
72501;SDS011;60524;49.874;8.652;2023-08-17T05:40:45;7.47;;;2.45;;
72501;SDS011;60524;49.874;8.652;2023-08-17T05:43:11;4.83;;;2.20;;
72501;SDS011;60524;49.874;8.652;2023-08-17T05:45:36;6.30;;;2.20;;
72501;SDS011;60524;49.874;8.652;2023-08-17T05:48:01;4.25;;;2.10;;
72501;SDS011;60524;49.874;8.652;2023-08-17T05:50:27;3.70;;;2.10;;
72501;SDS011;60524;49.874;8.652;2023-08-17T05:52:52;5.07;;;2.10;;
72501;SDS011;60524;49.874;8.652;2023-08-17T05:55:19;4.63;;;2.20;;
72501;SDS011;60524;49.874;8.652;2023-08-17T05:57:44;4.93;;;2.10;;
72501;SDS011;60524;49.874;8.652;2023-08-17T06:00:09;4.40;;;2.43;;
72501;SDS011;60524;49.874;8.652;2023-08-17T06:02:37;5.68;;;2.45;;
72501;SDS011;60524;49.874;8.652;2023-08-17T06:05:02;7.10;;;2.50;;
72501;SDS011;60524;49.874;8.652;2023-08-17T06:07:28;5.05;;;2.03;;
72501;SDS011;60524;49.874;8.652;2023-08-17T06:09:53;5.90;;;2.50;;
72501;SDS011;60524;49.874;8.652;2023-08-17T06:12:18;4.32;;;2.25;;
72501;SDS011;60524;49.874;8.652;2023-08-17T06:14:44;4.17;;;2.10;;
72501;SDS011;60524;49.874;8.652;2023-08-17T06:17:09;8.37;;;2.30;;
72501;SDS011;60524;49.874;8.652;2023-08-17T06:19:35;4.70;;;2.08;;
72501;SDS011;60524;49.874;8.652;2023-08-17T06:22:01;6.63;;;2.47;;
72501;SDS011;60524;49.874;8.652;2023-08-17T06:24:26;5.70;;;2.33;;
72501;SDS011;60524;49.874;8.652;2023-08-17T06:26:51;4.47;;;2.27;;
72501;SDS011;60524;49.874;8.652;2023-08-17T06:29:16;4.77;;;2.00;;
72501;SDS011;60524;49.874;8.652;2023-08-17T06:31:42;5.70;;;2.10;;
72501;SDS011;60524;49.874;8.652;2023-08-17T06:34:07;4.00;;;2.00;;
72501;SDS011;60524;49.874;8.652;2023-08-17T06:36:32;4.23;;;1.70;;
72501;SDS011;60524;49.874;8.652;2023-08-17T06:38:58;7.43;;;2.20;;
72501;SDS011;60524;49.874;8.652;2023-08-17T06:41:23;5.78;;;2.05;;
72501;SDS011;60524;49.874;8.652;2023-08-17T06:43:49;4.47;;;2.13;;
72501;SDS011;60524;49.874;8.652;2023-08-17T06:46:15;3.22;;;1.70;;
72501;SDS011;60524;49.874;8.652;2023-08-17T06:48:42;6.80;;;1.83;;
72501;SDS011;60524;49.874;8.652;2023-08-17T06:51:10;5.97;;;2.05;;
72501;SDS011;60524;49.874;8.652;2023-08-17T06:53:35;4.93;;;2.10;;
72501;SDS011;60524;49.874;8.652;2023-08-17T06:56:01;7.57;;;2.30;;
72501;SDS011;60524;49.874;8.652;2023-08-17T06:58:26;4.63;;;2.23;;
72501;SDS011;60524;49.874;8.652;2023-08-17T07:00:51;5.80;;;2.57;;
72501;SDS011;60524;49.874;8.652;2023-08-17T07:03:17;3.20;;;2.13;;
72501;SDS011;60524;49.874;8.652;2023-08-17T07:05:42;8.13;;;2.30;;
72501;SDS011;60524;49.874;8.652;2023-08-17T07:08:08;3.92;;;1.95;;
72501;SDS011;60524;49.874;8.652;2023-08-17T07:10:33;4.63;;;2.00;;
72501;SDS011;60524;49.874;8.652;2023-08-17T07:12:58;4.38;;;1.90;;
72501;SDS011;60524;49.874;8.652;2023-08-17T07:15:27;7.63;;;1.83;;
72501;SDS011;60524;49.874;8.652;2023-08-17T07:17:53;4.37;;;1.40;;
72501;SDS011;60524;49.874;8.652;2023-08-17T07:20:18;3.90;;;1.67;;
72501;SDS011;60524;49.874;8.652;2023-08-17T07:22:43;5.03;;;2.53;;
72501;SDS011;60524;49.874;8.652;2023-08-17T07:25:09;5.53;;;2.40;;
72501;SDS011;60524;49.874;8.652;2023-08-17T07:27:34;4.13;;;2.13;;
72501;SDS011;60524;49.874;8.652;2023-08-17T07:29:59;5.20;;;2.03;;
72501;SDS011;60524;49.874;8.652;2023-08-17T07:32:24;5.47;;;1.93;;
72501;SDS011;60524;49.874;8.652;2023-08-17T07:34:51;5.85;;;2.20;;
72501;SDS011;60524;49.874;8.652;2023-08-17T07:37:16;5.23;;;2.37;;
72501;SDS011;60524;49.874;8.652;2023-08-17T07:39:41;4.60;;;2.17;;
72501;SDS011;60524;49.874;8.652;2023-08-17T07:42:07;5.53;;;2.63;;
72501;SDS011;60524;49.874;8.652;2023-08-17T07:44:32;8.20;;;2.60;;
72501;SDS011;60524;49.874;8.652;2023-08-17T07:46:58;4.63;;;1.88;;
72501;SDS011;60524;49.874;8.652;2023-08-17T07:49:24;4.00;;;2.15;;
72501;SDS011;60524;49.874;8.652;2023-08-17T07:51:50;5.05;;;2.72;;
72501;SDS011;60524;49.874;8.652;2023-08-17T07:54:15;5.87;;;2.53;;
72501;SDS011;60524;49.874;8.652;2023-08-17T07:56:40;5.30;;;2.30;;
72501;SDS011;60524;49.874;8.652;2023-08-17T07:59:06;6.93;;;2.37;;
72501;SDS011;60524;49.874;8.652;2023-08-17T08:01:34;6.55;;;2.72;;
72501;SDS011;60524;49.874;8.652;2023-08-17T08:03:59;7.33;;;2.67;;
72501;SDS011;60524;49.874;8.652;2023-08-17T08:06:24;5.60;;;2.70;;
72501;SDS011;60524;49.874;8.652;2023-08-17T08:08:50;4.80;;;2.55;;
72501;SDS011;60524;49.874;8.652;2023-08-17T08:11:15;5.37;;;2.90;;
72501;SDS011;60524;49.874;8.652;2023-08-17T08:13:40;5.60;;;2.40;;
72501;SDS011;60524;49.874;8.652;2023-08-17T08:16:06;5.80;;;2.30;;
72501;SDS011;60524;49.874;8.652;2023-08-17T08:18:31;7.07;;;2.97;;
72501;SDS011;60524;49.874;8.652;2023-08-17T08:20:56;4.60;;;2.30;;
72501;SDS011;60524;49.874;8.652;2023-08-17T08:23:21;4.33;;;2.53;;
72501;SDS011;60524;49.874;8.652;2023-08-17T08:25:47;4.47;;;2.40;;
72501;SDS011;60524;49.874;8.652;2023-08-17T08:28:12;5.73;;;2.77;;
72501;SDS011;60524;49.874;8.652;2023-08-17T08:30:38;3.80;;;2.17;;
72501;SDS011;60524;49.874;8.652;2023-08-17T08:33:04;4.05;;;2.30;;
72501;SDS011;60524;49.874;8.652;2023-08-17T08:35:29;6.57;;;2.85;;
72501;SDS011;60524;49.874;8.652;2023-08-17T08:37:55;5.10;;;2.47;;
72501;SDS011;60524;49.874;8.652;2023-08-17T08:40:21;8.23;;;3.00;;
72501;SDS011;60524;49.874;8.652;2023-08-17T08:42:52;5.82;;;2.60;;
72501;SDS011;60524;49.874;8.652;2023-08-17T08:45:17;4.63;;;2.70;;
72501;SDS011;60524;49.874;8.652;2023-08-17T08:47:43;4.53;;;2.55;;
72501;SDS011;60524;49.874;8.652;2023-08-17T08:50:09;4.65;;;2.55;;
72501;SDS011;60524;49.874;8.652;2023-08-17T08:55:11;4.68;;;2.47;;
72501;SDS011;60524;49.874;8.652;2023-08-17T08:57:37;5.93;;;2.42;;
72501;SDS011;60524;49.874;8.652;2023-08-17T09:00:03;4.25;;;2.35;;
72501;SDS011;60524;49.874;8.652;2023-08-17T09:02:29;3.00;;;2.00;;
72501;SDS011;60524;49.874;8.652;2023-08-17T09:04:55;4.55;;;2.33;;
72501;SDS011;60524;49.874;8.652;2023-08-17T09:07:20;4.68;;;2.70;;
72501;SDS011;60524;49.874;8.652;2023-08-17T09:09:47;6.35;;;2.15;;
72501;SDS011;60524;49.874;8.652;2023-08-17T09:12:13;4.43;;;2.20;;
72501;SDS011;60524;49.874;8.652;2023-08-17T09:14:38;3.93;;;1.90;;
72501;SDS011;60524;49.874;8.652;2023-08-17T09:17:05;5.20;;;2.70;;
72501;SDS011;60524;49.874;8.652;2023-08-17T09:19:31;6.03;;;2.33;;
72501;SDS011;60524;49.874;8.652;2023-08-17T09:22:03;3.53;;;2.20;;
72501;SDS011;60524;49.874;8.652;2023-08-17T09:24:35;4.35;;;1.73;;
72501;SDS011;60524;49.874;8.652;2023-08-17T09:27:04;3.28;;;1.85;;
72501;SDS011;60524;49.874;8.652;2023-08-17T09:29:31;3.65;;;1.90;;
72501;SDS011;60524;49.874;8.652;2023-08-17T09:32:06;5.20;;;1.92;;
72501;SDS011;60524;49.874;8.652;2023-08-17T09:34:32;3.72;;;2.13;;
72501;SDS011;60524;49.874;8.652;2023-08-17T09:37:03;3.22;;;2.03;;
72501;SDS011;60524;49.874;8.652;2023-08-17T09:39:31;3.10;;;1.83;;
72501;SDS011;60524;49.874;8.652;2023-08-17T09:41:56;2.92;;;1.98;;
72501;SDS011;60524;49.874;8.652;2023-08-17T09:44:21;2.97;;;1.60;;
72501;SDS011;60524;49.874;8.652;2023-08-17T09:46:47;3.75;;;2.03;;
72501;SDS011;60524;49.874;8.652;2023-08-17T09:49:12;2.35;;;1.60;;
72501;SDS011;60524;49.874;8.652;2023-08-17T09:51:43;3.88;;;2.00;;
72501;SDS011;60524;49.874;8.652;2023-08-17T09:54:30;5.43;;;2.28;;
72501;SDS011;60524;49.874;8.652;2023-08-17T09:56:57;2.70;;;1.67;;
72501;SDS011;60524;49.874;8.652;2023-08-17T09:59:25;6.82;;;2.15;;
72501;SDS011;60524;49.874;8.652;2023-08-17T10:01:51;7.20;;;1.90;;
72501;SDS011;60524;49.874;8.652;2023-08-17T10:04:20;4.07;;;2.03;;
72501;SDS011;60524;49.874;8.652;2023-08-17T10:09:32;3.80;;;1.70;;
72501;SDS011;60524;49.874;8.652;2023-08-17T10:12:02;3.72;;;1.92;;
72501;SDS011;60524;49.874;8.652;2023-08-17T10:14:33;2.78;;;1.52;;
72501;SDS011;60524;49.874;8.652;2023-08-17T10:17:02;3.80;;;2.28;;
72501;SDS011;60524;49.874;8.652;2023-08-17T10:22:15;4.30;;;2.25;;
72501;SDS011;60524;49.874;8.652;2023-08-17T10:24:43;3.78;;;1.80;;
72501;SDS011;60524;49.874;8.652;2023-08-17T10:27:10;2.80;;;1.63;;
72501;SDS011;60524;49.874;8.652;2023-08-17T10:29:38;3.75;;;1.80;;
72501;SDS011;60524;49.874;8.652;2023-08-17T10:32:05;3.05;;;1.80;;
72501;SDS011;60524;49.874;8.652;2023-08-17T10:34:31;2.22;;;1.30;;
72501;SDS011;60524;49.874;8.652;2023-08-17T10:36:57;2.97;;;1.50;;
72501;SDS011;60524;49.874;8.652;2023-08-17T10:39:26;1.95;;;1.38;;
72501;SDS011;60524;49.874;8.652;2023-08-17T10:41:53;3.22;;;1.88;;
72501;SDS011;60524;49.874;8.652;2023-08-17T10:44:38;2.55;;;1.50;;
72501;SDS011;60524;49.874;8.652;2023-08-17T10:49:47;3.58;;;1.85;;
72501;SDS011;60524;49.874;8.652;2023-08-17T10:52:29;3.53;;;1.80;;
72501;SDS011;60524;49.874;8.652;2023-08-17T11:00:08;1.85;;;1.30;;
72501;SDS011;60524;49.874;8.652;2023-08-17T11:02:39;3.08;;;1.48;;
72501;SDS011;60524;49.874;8.652;2023-08-17T11:05:05;3.47;;;1.60;;
72501;SDS011;60524;49.874;8.652;2023-08-17T11:07:44;2.65;;;1.40;;
72501;SDS011;60524;49.874;8.652;2023-08-17T11:12:47;3.38;;;1.55;;
72501;SDS011;60524;49.874;8.652;2023-08-17T11:15:13;1.58;;;1.17;;
72501;SDS011;60524;49.874;8.652;2023-08-17T11:17:38;5.53;;;1.42;;
72501;SDS011;60524;49.874;8.652;2023-08-17T11:20:04;3.80;;;1.87;;
72501;SDS011;60524;49.874;8.652;2023-08-17T11:22:34;2.92;;;1.48;;
72501;SDS011;60524;49.874;8.652;2023-08-17T11:25:00;3.10;;;1.70;;
72501;SDS011;60524;49.874;8.652;2023-08-17T11:27:25;2.80;;;1.50;;
72501;SDS011;60524;49.874;8.652;2023-08-17T11:29:51;2.10;;;1.30;;
72501;SDS011;60524;49.874;8.652;2023-08-17T11:32:17;3.03;;;1.50;;
72501;SDS011;60524;49.874;8.652;2023-08-17T11:34:42;3.40;;;1.55;;
72501;SDS011;60524;49.874;8.652;2023-08-17T11:37:08;2.10;;;1.40;;
72501;SDS011;60524;49.874;8.652;2023-08-17T11:39:36;2.30;;;1.30;;
72501;SDS011;60524;49.874;8.652;2023-08-17T11:42:01;3.97;;;1.43;;
72501;SDS011;60524;49.874;8.652;2023-08-17T11:44:27;2.92;;;1.42;;
72501;SDS011;60524;49.874;8.652;2023-08-17T11:46:55;3.38;;;1.85;;
72501;SDS011;60524;49.874;8.652;2023-08-17T11:49:21;4.55;;;1.77;;
72501;SDS011;60524;49.874;8.652;2023-08-17T11:51:52;3.25;;;2.20;;
72501;SDS011;60524;49.874;8.652;2023-08-17T11:54:17;3.40;;;1.80;;
72501;SDS011;60524;49.874;8.652;2023-08-17T11:56:42;4.30;;;1.77;;
72501;SDS011;60524;49.874;8.652;2023-08-17T11:59:11;3.07;;;1.73;;
72501;SDS011;60524;49.874;8.652;2023-08-17T12:01:44;4.25;;;1.58;;
72501;SDS011;60524;49.874;8.652;2023-08-17T12:04:10;2.88;;;1.40;;
72501;SDS011;60524;49.874;8.652;2023-08-17T12:06:37;3.13;;;1.58;;
72501;SDS011;60524;49.874;8.652;2023-08-17T12:09:08;3.08;;;1.80;;
72501;SDS011;60524;49.874;8.652;2023-08-17T12:11:33;5.80;;;2.10;;
72501;SDS011;60524;49.874;8.652;2023-08-17T12:13:58;3.45;;;1.60;;
72501;SDS011;60524;49.874;8.652;2023-08-17T12:16:24;2.70;;;1.70;;
72501;SDS011;60524;49.874;8.652;2023-08-17T12:18:50;3.30;;;1.70;;
72501;SDS011;60524;49.874;8.652;2023-08-17T12:21:16;4.97;;;1.98;;
72501;SDS011;60524;49.874;8.652;2023-08-17T12:23:41;4.53;;;1.52;;
72501;SDS011;60524;49.874;8.652;2023-08-17T12:26:07;3.38;;;1.85;;
72501;SDS011;60524;49.874;8.652;2023-08-17T12:28:33;3.30;;;1.80;;
72501;SDS011;60524;49.874;8.652;2023-08-17T12:31:02;2.00;;;1.63;;
72501;SDS011;60524;49.874;8.652;2023-08-17T12:33:28;3.60;;;1.75;;
72501;SDS011;60524;49.874;8.652;2023-08-17T12:35:53;5.40;;;1.73;;
72501;SDS011;60524;49.874;8.652;2023-08-17T12:38:19;5.57;;;2.03;;
72501;SDS011;60524;49.874;8.652;2023-08-17T12:40:44;2.38;;;1.70;;
72501;SDS011;60524;49.874;8.652;2023-08-17T12:43:09;3.75;;;2.05;;
72501;SDS011;60524;49.874;8.652;2023-08-17T12:45:35;6.90;;;2.10;;
72501;SDS011;60524;49.874;8.652;2023-08-17T12:48:00;3.50;;;2.13;;
72501;SDS011;60524;49.874;8.652;2023-08-17T12:50:25;4.50;;;2.00;;
72501;SDS011;60524;49.874;8.652;2023-08-17T12:52:51;3.13;;;1.80;;
72501;SDS011;60524;49.874;8.652;2023-08-17T12:55:16;7.90;;;2.22;;
72501;SDS011;60524;49.874;8.652;2023-08-17T12:57:42;5.77;;;2.20;;
72501;SDS011;60524;49.874;8.652;2023-08-17T13:00:07;3.20;;;2.10;;
72501;SDS011;60524;49.874;8.652;2023-08-17T13:02:34;6.97;;;2.10;;
72501;SDS011;60524;49.874;8.652;2023-08-17T13:04:59;4.40;;;2.17;;
72501;SDS011;60524;49.874;8.652;2023-08-17T13:07:25;3.92;;;2.00;;
72501;SDS011;60524;49.874;8.652;2023-08-17T13:09:50;5.50;;;2.00;;
72501;SDS011;60524;49.874;8.652;2023-08-17T13:12:15;4.43;;;2.13;;
72501;SDS011;60524;49.874;8.652;2023-08-17T13:14:40;3.03;;;1.77;;
72501;SDS011;60524;49.874;8.652;2023-08-17T13:17:06;2.60;;;1.77;;
72501;SDS011;60524;49.874;8.652;2023-08-17T13:19:31;2.88;;;1.83;;
72501;SDS011;60524;49.874;8.652;2023-08-17T13:21:57;8.17;;;1.63;;
72501;SDS011;60524;49.874;8.652;2023-08-17T13:24:22;5.20;;;1.90;;
72501;SDS011;60524;49.874;8.652;2023-08-17T13:26:47;4.70;;;1.90;;
72501;SDS011;60524;49.874;8.652;2023-08-17T13:29:18;4.40;;;1.70;;
72501;SDS011;60524;49.874;8.652;2023-08-17T13:31:47;5.78;;;2.10;;
72501;SDS011;60524;49.874;8.652;2023-08-17T13:34:13;3.72;;;1.90;;
72501;SDS011;60524;49.874;8.652;2023-08-17T13:36:38;3.50;;;1.83;;
72501;SDS011;60524;49.874;8.652;2023-08-17T13:39:04;4.15;;;1.88;;
72501;SDS011;60524;49.874;8.652;2023-08-17T13:41:29;2.72;;;1.80;;
72501;SDS011;60524;49.874;8.652;2023-08-17T13:43:54;3.63;;;1.67;;
72501;SDS011;60524;49.874;8.652;2023-08-17T13:46:22;3.47;;;1.80;;
72501;SDS011;60524;49.874;8.652;2023-08-17T13:48:47;3.43;;;1.93;;
72501;SDS011;60524;49.874;8.652;2023-08-17T13:51:12;3.83;;;1.93;;
72501;SDS011;60524;49.874;8.652;2023-08-17T13:53:38;5.00;;;2.00;;
72501;SDS011;60524;49.874;8.652;2023-08-17T13:56:04;3.75;;;1.75;;
72501;SDS011;60524;49.874;8.652;2023-08-17T13:58:32;2.47;;;1.63;;
72501;SDS011;60524;49.874;8.652;2023-08-17T14:00:57;3.25;;;1.90;;
72501;SDS011;60524;49.874;8.652;2023-08-17T14:03:25;4.27;;;1.73;;
72501;SDS011;60524;49.874;8.652;2023-08-17T14:05:51;2.60;;;1.70;;
72501;SDS011;60524;49.874;8.652;2023-08-17T14:08:16;4.60;;;1.93;;
72501;SDS011;60524;49.874;8.652;2023-08-17T14:10:41;3.57;;;1.87;;
72501;SDS011;60524;49.874;8.652;2023-08-17T14:13:07;2.73;;;1.50;;
72501;SDS011;60524;49.874;8.652;2023-08-17T14:15:32;2.78;;;1.50;;
72501;SDS011;60524;49.874;8.652;2023-08-17T14:17:57;5.38;;;2.42;;
72501;SDS011;60524;49.874;8.652;2023-08-17T14:20:23;2.30;;;1.30;;
72501;SDS011;60524;49.874;8.652;2023-08-17T14:22:48;5.40;;;1.87;;
72501;SDS011;60524;49.874;8.652;2023-08-17T14:25:13;2.67;;;1.60;;
72501;SDS011;60524;49.874;8.652;2023-08-17T14:27:41;3.15;;;1.70;;
72501;SDS011;60524;49.874;8.652;2023-08-17T14:30:06;6.22;;;2.20;;
72501;SDS011;60524;49.874;8.652;2023-08-17T14:32:32;3.58;;;2.00;;
72501;SDS011;60524;49.874;8.652;2023-08-17T14:35:00;5.65;;;2.15;;
72501;SDS011;60524;49.874;8.652;2023-08-17T14:37:26;7.25;;;3.25;;
72501;SDS011;60524;49.874;8.652;2023-08-17T14:39:51;2.93;;;1.60;;
72501;SDS011;60524;49.874;8.652;2023-08-17T14:42:17;2.83;;;1.60;;
72501;SDS011;60524;49.874;8.652;2023-08-17T14:44:42;4.07;;;1.50;;
72501;SDS011;60524;49.874;8.652;2023-08-17T14:47:07;3.67;;;1.63;;
72501;SDS011;60524;49.874;8.652;2023-08-17T14:49:32;4.93;;;1.50;;
72501;SDS011;60524;49.874;8.652;2023-08-17T14:51:58;3.50;;;1.63;;
72501;SDS011;60524;49.874;8.652;2023-08-17T14:54:23;3.60;;;1.60;;
72501;SDS011;60524;49.874;8.652;2023-08-17T14:56:50;3.65;;;1.58;;
72501;SDS011;60524;49.874;8.652;2023-08-17T14:59:15;3.22;;;1.50;;
72501;SDS011;60524;49.874;8.652;2023-08-17T15:01:40;2.63;;;1.40;;
72501;SDS011;60524;49.874;8.652;2023-08-17T15:04:06;2.70;;;1.30;;
72501;SDS011;60524;49.874;8.652;2023-08-17T15:06:31;5.10;;;1.70;;
72501;SDS011;60524;49.874;8.652;2023-08-17T15:08:56;2.63;;;1.70;;
72501;SDS011;60524;49.874;8.652;2023-08-17T15:11:23;1.92;;;1.30;;
72501;SDS011;60524;49.874;8.652;2023-08-17T15:13:48;3.80;;;1.60;;
72501;SDS011;60524;49.874;8.652;2023-08-17T15:16:14;3.80;;;1.75;;